Time;durP1;ratioP1;P1;durP2;ratioP2;P2;SDS_P1;SDS_P2;PMS_P1;PMS_P2;Temp;Humidity;BMP_temperature;BMP_pressure;BME280_temperature;BME280_humidity;BME280_pressure;Samples;Min_cycle;Max_cycle;Signal;HPM_P1;HPM_P2
2023/08/23 00:01:38;;;;;;;8.23;6.75;;;17.10;99.90;;;;;;4985011;28;20050;-57
2023/08/23 00:04:04;;;;;;;8.30;7.22;;;17.00;99.90;;;;;;4985270;28;20042;-55
2023/08/23 00:06:29;;;;;;;11.90;7.63;;;17.00;99.90;;;;;;4985184;28;20389;-58
2023/08/23 00:08:55;;;;;;;12.57;8.00;;;17.00;99.90;;;;;;4984586;28;20054;-59
2023/08/23 00:11:20;;;;;;;13.40;7.65;;;17.00;99.90;;;;;;4984573;28;20050;-58
2023/08/23 00:13:46;;;;;;;10.75;7.30;;;16.90;99.90;;;;;;4985608;28;20057;-58
2023/08/23 00:16:12;;;;;;;11.50;7.75;;;16.90;99.90;;;;;;4985251;28;20402;-55
2023/08/23 00:18:38;;;;;;;12.32;7.80;;;16.90;99.90;;;;;;4984685;28;20417;-55
2023/08/23 00:21:03;;;;;;;10.02;7.00;;;16.90;99.90;;;;;;4985037;28;20046;-58
2023/08/23 00:23:29;;;;;;;11.30;7.65;;;16.80;99.90;;;;;;4984526;28;20052;-59
2023/08/23 00:25:55;;;;;;;14.10;7.57;;;16.70;99.90;;;;;;4984025;28;20520;-59
2023/08/23 00:28:20;;;;;;;10.27;7.78;;;16.70;99.90;;;;;;4985124;28;20050;-57
2023/08/23 00:30:53;;;;;;;11.52;7.85;;;16.70;99.90;;;;;;4983787;28;20046;-58
2023/08/23 00:33:19;;;;;;;9.75;7.43;;;16.70;99.90;;;;;;4983293;28;20494;-57
2023/08/23 00:35:45;;;;;;;9.13;7.43;;;16.60;99.90;;;;;;4984749;28;20054;-57
2023/08/23 00:38:10;;;;;;;11.63;7.28;;;16.60;99.90;;;;;;4985002;28;20043;-58
2023/08/23 00:40:36;;;;;;;11.10;7.43;;;16.50;99.90;;;;;;4999331;28;20042;-57
2023/08/23 00:43:02;;;;;;;9.48;7.05;;;16.50;99.90;;;;;;4984740;28;20711;-57
2023/08/23 00:45:30;;;;;;;9.30;7.97;;;16.50;99.90;;;;;;4985222;28;20042;-56
2023/08/23 00:47:56;;;;;;;11.48;7.40;;;16.50;99.90;;;;;;4984528;28;20039;-59
2023/08/23 00:50:22;;;;;;;11.50;7.78;;;16.50;99.90;;;;;;4984308;28;20133;-58
2023/08/23 00:52:48;;;;;;;10.80;7.47;;;16.40;99.90;;;;;;4984405;28;20050;-59
2023/08/23 00:55:14;;;;;;;11.95;8.30;;;16.40;99.90;;;;;;4985721;28;20165;-58
2023/08/23 00:57:40;;;;;;;9.68;7.82;;;16.30;99.90;;;;;;4993773;28;20466;-55
2023/08/23 01:00:06;;;;;;;11.27;8.30;;;16.20;99.90;;;;;;4983810;28;20042;-59
2023/08/23 01:02:33;;;;;;;9.10;8.07;;;16.30;99.90;;;;;;4984507;28;20622;-57
2023/08/23 01:04:59;;;;;;;9.98;8.10;;;16.30;99.90;;;;;;4984343;28;20046;-57
2023/08/23 01:07:39;;;;;;;12.60;8.52;;;16.20;99.90;;;;;;4983998;28;20444;-55
2023/08/23 01:10:20;;;;;;;11.93;8.80;;;16.30;99.90;;;;;;4983580;28;20046;-56
2023/08/23 01:13:00;;;;;;;10.25;7.75;;;16.20;99.90;;;;;;4983562;28;20094;-54
2023/08/23 01:15:27;;;;;;;8.80;7.90;;;16.20;99.90;;;;;;4984541;28;20073;-59
2023/08/23 01:17:53;;;;;;;11.30;8.98;;;16.10;99.90;;;;;;4983230;28;20054;-57
2023/08/23 01:20:19;;;;;;;10.98;8.95;;;16.10;99.90;;;;;;5014320;28;20352;-59
2023/08/23 01:22:52;;;;;;;11.07;8.85;;;16.10;99.90;;;;;;5023856;28;20124;-56
2023/08/23 01:25:18;;;;;;;12.73;9.25;;;16.10;99.90;;;;;;5022914;28;20037;-57
2023/08/23 01:27:44;;;;;;;10.82;9.02;;;16.10;99.90;;;;;;5023912;28;20124;-57
2023/08/23 01:30:11;;;;;;;10.48;8.50;;;16.10;99.90;;;;;;5024014;28;20499;-55
2023/08/23 01:32:37;;;;;;;11.80;9.07;;;16.10;99.90;;;;;;5023880;28;20081;-58
2023/08/23 01:35:32;;;;;;;12.27;9.27;;;16.10;99.90;;;;;;5022308;28;20499;-59
2023/08/23 01:37:59;;;;;;;;;;;16.10;99.90;;;;;;5023395;28;20045;-58
2023/08/23 01:40:25;;;;;;;12.05;8.45;;;16.00;99.90;;;;;;5021167;28;20003;-56
2023/08/23 01:42:53;;;;;;;11.68;8.90;;;16.00;99.90;;;;;;5025738;28;20056;-58
2023/08/23 01:45:19;;;;;;;12.00;9.20;;;16.00;99.90;;;;;;5027067;28;20052;-59
2023/08/23 01:47:44;;;;;;;12.88;9.15;;;16.10;99.90;;;;;;5015086;28;20396;-59
2023/08/23 01:50:10;;;;;;;11.82;9.23;;;16.50;99.90;;;;;;4995815;28;20568;-58
2023/08/23 01:52:36;;;;;;;12.93;9.55;;;16.10;99.90;;;;;;4988239;28;20060;-58
2023/08/23 01:55:01;;;;;;;12.75;9.25;;;16.10;99.90;;;;;;4986731;28;20054;-58
2023/08/23 01:57:27;;;;;;;12.95;9.40;;;16.00;99.90;;;;;;4997396;28;20527;-58
2023/08/23 01:59:55;;;;;;;13.70;9.80;;;16.00;99.90;;;;;;4987088;28;20065;-58
2023/08/23 02:02:20;;;;;;;10.45;9.35;;;15.90;99.90;;;;;;4985829;28;20090;-57
2023/08/23 02:04:46;;;;;;;12.15;10.13;;;15.90;99.90;;;;;;4987409;28;20081;-58
2023/08/23 02:07:11;;;;;;;12.30;10.20;;;15.90;99.90;;;;;;4987432;28;20038;-57
2023/08/23 02:09:37;;;;;;;14.32;9.48;;;15.90;99.90;;;;;;4987447;28;20049;-58
2023/08/23 02:12:03;;;;;;;12.07;9.93;;;15.80;99.90;;;;;;4986442;28;20118;-58
2023/08/23 02:14:29;;;;;;;11.52;9.73;;;15.80;99.90;;;;;;4986516;28;20066;-59
2023/08/23 02:16:54;;;;;;;13.73;9.60;;;15.80;99.90;;;;;;4987359;28;20042;-58
2023/08/23 02:19:20;;;;;;;17.20;10.43;;;15.70;99.90;;;;;;4986569;28;20166;-59
2023/08/23 02:21:45;;;;;;;12.70;10.02;;;15.80;99.90;;;;;;4986081;28;20563;-58
2023/08/23 02:24:11;;;;;;;12.90;10.23;;;15.80;99.90;;;;;;4986075;28;20148;-58
2023/08/23 02:26:37;;;;;;;12.75;10.15;;;15.80;99.90;;;;;;4985140;28;20704;-58
2023/08/23 02:29:03;;;;;;;15.35;10.80;;;15.90;99.90;;;;;;4986235;28;20797;-60
2023/08/23 02:31:29;;;;;;;15.63;10.15;;;15.70;99.90;;;;;;4985663;28;20443;-54
2023/08/23 02:33:54;;;;;;;13.70;10.00;;;15.80;99.90;;;;;;4986263;28;20551;-59
2023/08/23 02:36:20;;;;;;;13.93;9.77;;;15.80;99.90;;;;;;4986122;28;20047;-59
2023/08/23 02:38:46;;;;;;;12.15;9.85;;;15.80;99.90;;;;;;4986058;28;20050;-59
2023/08/23 02:41:11;;;;;;;14.00;10.35;;;15.80;99.90;;;;;;4985806;28;20410;-59
2023/08/23 02:43:38;;;;;;;13.90;10.30;;;15.80;99.90;;;;;;4986521;28;20141;-59
2023/08/23 02:46:03;;;;;;;12.18;9.57;;;15.80;99.90;;;;;;4987195;28;20038;-57
2023/08/23 02:48:29;;;;;;;12.85;10.15;;;15.80;99.90;;;;;;4986297;28;20078;-58
2023/08/23 02:50:55;;;;;;;14.20;10.55;;;15.80;99.90;;;;;;4985969;28;20425;-56
2023/08/23 02:53:21;;;;;;;13.38;10.10;;;15.70;99.90;;;;;;4985368;28;20482;-58
2023/08/23 02:55:46;;;;;;;15.57;10.50;;;15.70;99.90;;;;;;4987272;28;20053;-56
2023/08/23 02:58:12;;;;;;;15.55;10.88;;;15.70;99.90;;;;;;4995141;28;20042;-58
2023/08/23 03:00:38;;;;;;;11.65;10.35;;;15.70;99.90;;;;;;4986269;28;20089;-56
2023/08/23 03:03:04;;;;;;;14.25;9.98;;;15.70;99.90;;;;;;4985402;28;20793;-58
2023/08/23 03:05:31;;;;;;;14.90;10.57;;;15.60;99.90;;;;;;5000209;28;20052;-58
2023/08/23 03:07:57;;;;;;;12.73;9.93;;;15.60;99.90;;;;;;4985787;28;20078;-58
2023/08/23 03:10:22;;;;;;;12.63;9.57;;;15.60;99.90;;;;;;4985604;28;20473;-56
2023/08/23 03:12:48;;;;;;;12.55;9.50;;;15.60;99.90;;;;;;4986069;28;20136;-55
2023/08/23 03:15:14;;;;;;;13.23;9.50;;;15.50;99.90;;;;;;4985922;28;20078;-59
2023/08/23 03:17:39;;;;;;;12.63;9.60;;;15.40;99.90;;;;;;4986574;28;20042;-59
2023/08/23 03:20:05;;;;;;;13.23;10.00;;;15.40;99.90;;;;;;4986356;28;20042;-59
2023/08/23 03:22:31;;;;;;;11.32;9.52;;;15.40;99.90;;;;;;4985695;28;20098;-58
2023/08/23 03:24:57;;;;;;;12.02;8.57;;;15.50;99.90;;;;;;4984380;28;20647;-56
2023/08/23 03:27:24;;;;;;;11.25;9.23;;;15.50;99.90;;;;;;4985575;28;20141;-58
2023/08/23 03:29:50;;;;;;;13.80;9.32;;;15.50;99.90;;;;;;4985366;28;20125;-59
2023/08/23 03:32:16;;;;;;;11.70;8.52;;;15.50;99.90;;;;;;4986187;28;20113;-59
2023/08/23 03:34:42;;;;;;;12.00;8.85;;;15.50;99.90;;;;;;4985470;28;20113;-59
2023/08/23 03:37:07;;;;;;;13.88;9.45;;;15.50;99.90;;;;;;4985664;28;20038;-57
2023/08/23 03:39:33;;;;;;;11.65;9.13;;;15.50;99.90;;;;;;4984717;28;20054;-55
2023/08/23 03:41:59;;;;;;;10.77;8.50;;;15.50;99.90;;;;;;4984867;28;20041;-58
2023/08/23 03:44:24;;;;;;;13.02;9.80;;;15.40;99.90;;;;;;4985977;28;20105;-58
2023/08/23 03:46:50;;;;;;;13.35;8.40;;;15.40;99.90;;;;;;4984961;28;20035;-54
2023/08/23 03:49:15;;;;;;;10.85;9.48;;;15.50;99.90;;;;;;4985029;28;20080;-59
2023/08/23 03:51:41;;;;;;;13.80;10.07;;;15.50;99.90;;;;;;4985900;28;20133;-59
2023/08/23 03:54:06;;;;;;;24.42;11.02;;;15.40;99.90;;;;;;4985380;28;20127;-56
2023/08/23 03:56:32;;;;;;;20.73;11.60;;;15.50;99.90;;;;;;4985990;28;20049;-59
2023/08/23 03:58:58;;;;;;;25.05;11.98;;;15.40;99.90;;;;;;5002383;28;20061;-58
2023/08/23 04:01:24;;;;;;;29.73;12.05;;;15.60;99.90;;;;;;5005477;28;20057;-58
2023/08/23 04:03:50;;;;;;;20.75;12.05;;;15.40;99.90;;;;;;5005020;28;20042;-58
2023/08/23 04:06:16;;;;;;;19.17;12.32;;;15.30;99.90;;;;;;5004839;28;20397;-56
2023/08/23 04:08:41;;;;;;;24.80;12.15;;;15.20;99.90;;;;;;5004820;28;20414;-58
2023/08/23 04:11:07;;;;;;;22.42;11.55;;;15.30;99.90;;;;;;5003730;28;20089;-58
2023/08/23 04:13:32;;;;;;;21.83;12.00;;;15.30;99.90;;;;;;5004164;28;20061;-58
2023/08/23 04:15:58;;;;;;;32.10;12.07;;;15.20;99.90;;;;;;5004986;28;20053;-58
2023/08/23 04:18:24;;;;;;;21.08;12.73;;;15.20;99.90;;;;;;5004190;28;20049;-59
2023/08/23 04:20:59;;;;;;;19.27;12.00;;;15.20;99.90;;;;;;5004524;28;20080;-54
2023/08/23 04:23:25;;;;;;;22.38;13.48;;;15.10;99.90;;;;;;5003582;28;20042;-56
2023/08/23 04:25:51;;;;;;;23.20;13.55;;;15.10;99.90;;;;;;5003995;28;20045;-55
2023/08/23 04:28:16;;;;;;;20.10;13.52;;;15.10;99.90;;;;;;5004665;28;20092;-56
2023/08/23 04:30:42;;;;;;;22.58;15.30;;;15.20;99.90;;;;;;5004693;28;20040;-56
2023/08/23 04:33:08;;;;;;;18.20;14.40;;;15.20;99.90;;;;;;5004308;28;20056;-56
2023/08/23 04:35:34;;;;;;;19.48;14.23;;;15.20;99.90;;;;;;5004835;28;20042;-58
2023/08/23 04:37:59;;;;;;;20.17;14.80;;;15.20;99.90;;;;;;5004011;28;20493;-54
2023/08/23 04:40:25;;;;;;;19.10;14.82;;;15.20;99.90;;;;;;5003798;28;20112;-55
2023/08/23 04:42:51;;;;;;;19.30;14.68;;;15.30;99.90;;;;;;5004519;28;20774;-55
2023/08/23 04:45:16;;;;;;;19.42;14.63;;;15.30;99.90;;;;;;5004290;28;20053;-55
2023/08/23 04:47:42;;;;;;;24.30;13.48;;;15.40;99.90;;;;;;5003957;28;20053;-55
2023/08/23 04:50:08;;;;;;;17.20;13.30;;;15.40;99.90;;;;;;5004211;28;20077;-54
2023/08/23 04:52:34;;;;;;;19.40;13.90;;;15.40;99.90;;;;;;5003997;28;20405;-57
2023/08/23 04:55:00;;;;;;;18.70;14.15;;;15.40;99.90;;;;;;5001002;28;20053;-57
2023/08/23 04:57:25;;;;;;;19.63;13.70;;;15.50;99.90;;;;;;4992686;28;20570;-57
2023/08/23 04:59:52;;;;;;;18.80;14.07;;;15.50;99.90;;;;;;5004185;28;20077;-59
2023/08/23 05:02:18;;;;;;;17.23;14.07;;;15.50;99.90;;;;;;5003744;28;20052;-54
2023/08/23 05:04:44;;;;;;;18.05;13.95;;;15.50;99.90;;;;;;5002769;28;21154;-54
2023/08/23 05:07:10;;;;;;;20.23;14.27;;;15.60;99.90;;;;;;5003674;28;20564;-56
2023/08/23 05:09:35;;;;;;;19.88;14.32;;;15.70;99.90;;;;;;5003137;28;20038;-57
2023/08/23 05:12:01;;;;;;;20.42;14.10;;;15.80;99.90;;;;;;5001906;28;20038;-58
2023/08/23 05:14:26;;;;;;;19.67;14.38;;;15.90;99.90;;;;;;5003805;28;20467;-56
2023/08/23 05:16:52;;;;;;;20.20;14.43;;;15.90;99.90;;;;;;5006184;28;20073;-56
2023/08/23 05:19:18;;;;;;;19.10;13.75;;;16.00;99.90;;;;;;5007974;28;20057;-56
2023/08/23 05:21:43;;;;;;;20.88;13.95;;;16.00;99.90;;;;;;5006909;28;20050;-56
2023/08/23 05:24:09;;;;;;;22.63;14.40;;;16.10;99.90;;;;;;5007026;28;20783;-59
2023/08/23 05:26:34;;;;;;;18.67;14.60;;;16.10;99.90;;;;;;5007031;28;20037;-55
2023/08/23 05:29:00;;;;;;;20.08;13.80;;;16.10;99.90;;;;;;5006615;28;20057;-58
2023/08/23 05:31:26;;;;;;;19.85;13.60;;;16.20;99.90;;;;;;5007206;28;20041;-56
2023/08/23 05:33:51;;;;;;;19.65;13.40;;;16.20;99.90;;;;;;5007294;28;20041;-57
2023/08/23 05:36:17;;;;;;;18.67;14.18;;;16.10;99.90;;;;;;5006940;28;20417;-58
2023/08/23 05:38:42;;;;;;;19.33;14.07;;;16.20;99.90;;;;;;5006492;28;20045;-59
2023/08/23 05:41:08;;;;;;;19.35;13.65;;;16.30;99.90;;;;;;5007061;28;20042;-59
2023/08/23 05:43:34;;;;;;;18.42;13.27;;;16.40;99.90;;;;;;5007067;28;20053;-58
2023/08/23 05:45:59;;;;;;;19.50;13.95;;;16.50;99.90;;;;;;5006367;28;20416;-57
2023/08/23 05:48:25;;;;;;;17.50;13.85;;;16.60;99.90;;;;;;5007290;28;20042;-58
2023/08/23 05:50:51;;;;;;;18.25;13.93;;;16.60;99.90;;;;;;5007088;28;20041;-59
2023/08/23 05:53:19;;;;;;;18.75;13.10;;;16.70;99.90;;;;;;5001063;28;20037;-58
2023/08/23 05:55:49;;;;;;;17.42;14.32;;;16.60;99.90;;;;;;4997184;28;20042;-59
2023/08/23 05:58:19;;;;;;;18.60;13.38;;;16.80;99.90;;;;;;4998651;28;20042;-55
2023/08/23 06:00:46;;;;;;;15.52;12.95;;;17.00;99.90;;;;;;5005879;28;20053;-58
2023/08/23 06:03:14;;;;;;;18.08;14.18;;;17.00;99.90;;;;;;5005782;28;20049;-57
2023/08/23 06:05:41;;;;;;;21.45;14.68;;;16.80;99.90;;;;;;5006460;28;20046;-58
2023/08/23 06:08:07;;;;;;;18.85;15.20;;;16.80;99.90;;;;;;5006819;28;20401;-57
2023/08/23 06:10:33;;;;;;;17.83;14.18;;;16.80;99.90;;;;;;5005403;28;20041;-57
2023/08/23 06:12:59;;;;;;;18.23;13.60;;;17.00;99.90;;;;;;5006234;28;20097;-57
2023/08/23 06:15:27;;;;;;;16.23;13.20;;;17.50;99.90;;;;;;5006840;28;20050;-59
2023/08/23 06:17:54;;;;;;;17.30;12.90;;;17.90;99.90;;;;;;5005839;28;20042;-58
2023/08/23 06:20:20;;;;;;;18.40;12.35;;;18.40;99.90;;;;;;5007002;28;20233;-56
2023/08/23 06:22:46;;;;;;;15.30;11.73;;;18.80;99.90;;;;;;5006410;28;20499;-57
2023/08/23 06:25:11;;;;;;;14.75;12.18;;;18.90;99.90;;;;;;5006067;28;20042;-58
2023/08/23 06:27:37;;;;;;;15.18;11.73;;;19.00;99.90;;;;;;5005973;28;20068;-58
2023/08/23 06:30:06;;;;;;;17.75;12.60;;;19.00;99.90;;;;;;5006773;28;20128;-53
2023/08/23 06:32:32;;;;;;;15.15;12.10;;;19.30;99.90;;;;;;5006918;28;20088;-54
2023/08/23 06:34:57;;;;;;;14.65;11.93;;;19.50;99.90;;;;;;5006421;28;20041;-57
2023/08/23 06:37:23;;;;;;;15.98;11.95;;;19.70;99.90;;;;;;5005110;28;20048;-56
2023/08/23 06:39:52;;;;;;;15.52;12.20;;;19.90;99.90;;;;;;5005326;28;20117;-56
2023/08/23 06:42:17;;;;;;;15.73;11.90;;;20.00;99.90;;;;;;5005745;28;20038;-56
2023/08/23 06:44:44;;;;;;;14.95;12.95;;;20.10;99.90;;;;;;5005481;28;20638;-55
2023/08/23 06:47:10;;;;;;;15.65;13.75;;;20.20;99.90;;;;;;5005809;28;20707;-58
2023/08/23 06:49:35;;;;;;;19.23;13.88;;;20.20;99.90;;;;;;5006325;28;20044;-57
2023/08/23 06:52:01;;;;;;;19.73;14.73;;;20.40;99.90;;;;;;5004348;28;20057;-55
2023/08/23 06:54:27;;;;;;;19.85;16.55;;;20.50;99.90;;;;;;5005677;28;20080;-57
2023/08/23 06:56:52;;;;;;;20.27;17.42;;;20.30;99.90;;;;;;4999666;28;20050;-54
2023/08/23 06:59:18;;;;;;;22.20;19.90;;;20.20;99.90;;;;;;5018804;28;20092;-57
2023/08/23 07:01:44;;;;;;;22.42;19.73;;;20.20;99.90;;;;;;5005692;28;20485;-57
2023/08/23 07:04:10;;;;;;;22.60;19.80;;;20.10;99.90;;;;;;5006100;28;20045;-56
2023/08/23 07:06:36;;;;;;;23.00;20.02;;;20.00;99.90;;;;;;5004599;28;20125;-57
2023/08/23 07:09:01;;;;;;;26.08;21.83;;;20.00;99.90;;;;;;5000865;28;20048;-57
2023/08/23 07:11:27;;;;;;;26.70;22.75;;;19.70;99.90;;;;;;5003213;28;20497;-56
2023/08/23 07:13:52;;;;;;;26.70;22.77;;;19.40;99.90;;;;;;5001648;28;20821;-55
2023/08/23 07:16:18;;;;;;;27.88;23.08;;;19.20;99.90;;;;;;4998424;28;20986;-58
2023/08/23 07:18:44;;;;;;;25.83;21.75;;;19.20;99.90;;;;;;5000026;28;20047;-58
2023/08/23 07:21:09;;;;;;;24.80;21.17;;;19.40;99.90;;;;;;5003281;28;20046;-55
2023/08/23 07:23:35;;;;;;;25.13;20.35;;;19.90;99.90;;;;;;4999708;28;20480;-56
2023/08/23 07:26:03;;;;;;;25.60;20.50;;;20.20;99.90;;;;;;4999049;28;20435;-57
2023/08/23 07:28:28;;;;;;;28.02;21.85;;;20.20;99.90;;;;;;5004223;28;20657;-57
2023/08/23 07:30:57;;;;;;;29.58;21.83;;;19.90;99.90;;;;;;4986058;28;20081;-57
2023/08/23 07:33:24;;;;;;;25.08;21.35;;;19.50;99.90;;;;;;4985416;28;20042;-58
2023/08/23 07:35:57;;;;;;;23.73;19.75;;;19.40;99.90;;;;;;4985907;28;20424;-59
2023/08/23 07:38:23;;;;;;;22.42;20.00;;;19.70;99.90;;;;;;4984508;28;20512;-54
2023/08/23 07:40:49;;;;;;;22.23;19.88;;;20.00;99.90;;;;;;4998376;28;20073;-58
2023/08/23 07:43:15;;;;;;;21.60;17.60;;;20.20;99.90;;;;;;5002681;28;20041;-55
2023/08/23 07:45:40;;;;;;;20.60;17.60;;;20.30;99.90;;;;;;5004548;28;20042;-57
2023/08/23 07:48:06;;;;;;;19.40;16.70;;;20.30;99.90;;;;;;5005378;28;20772;-58
2023/08/23 07:50:32;;;;;;;20.15;16.30;;;20.40;99.90;;;;;;4994339;28;20501;-58
2023/08/23 07:52:57;;;;;;;18.45;16.30;;;20.60;99.90;;;;;;5005006;28;20091;-56
2023/08/23 07:55:23;;;;;;;17.25;15.52;;;20.80;99.90;;;;;;4995083;28;20111;-58
2023/08/23 07:57:49;;;;;;;18.80;13.70;;;21.00;99.90;;;;;;4995781;28;20038;-58
2023/08/23 08:00:15;;;;;;;16.35;13.90;;;21.00;99.90;;;;;;5004079;28;20532;-58
2023/08/23 08:02:40;;;;;;;14.57;12.07;;;21.30;99.90;;;;;;5001157;28;20057;-58
2023/08/23 08:05:07;;;;;;;12.75;10.70;;;21.50;99.90;;;;;;5002267;28;20045;-60
2023/08/23 08:07:33;;;;;;;14.48;11.40;;;21.60;99.90;;;;;;5003942;28;20057;-57
2023/08/23 08:09:59;;;;;;;14.00;11.93;;;21.50;99.90;;;;;;5000989;28;20042;-55
2023/08/23 08:12:24;;;;;;;13.52;10.75;;;21.30;99.90;;;;;;5004855;28;20125;-58
2023/08/23 08:14:50;;;;;;;12.75;9.52;;;21.10;99.90;;;;;;5004636;28;20448;-58
2023/08/23 08:17:15;;;;;;;14.23;11.40;;;21.10;99.90;;;;;;5005115;28;20038;-58
2023/08/23 08:19:41;;;;;;;12.00;10.77;;;21.00;99.90;;;;;;4998440;28;20081;-56
2023/08/23 08:22:07;;;;;;;15.10;12.13;;;21.00;99.90;;;;;;4987144;28;20046;-60
2023/08/23 08:24:32;;;;;;;11.88;9.95;;;21.00;99.90;;;;;;4983047;28;20107;-58
2023/08/23 08:26:58;;;;;;;13.20;9.80;;;21.30;99.90;;;;;;5002744;28;20558;-56
2023/08/23 08:29:23;;;;;;;13.95;9.70;;;21.60;99.90;;;;;;4984527;28;20883;-57
2023/08/23 08:31:50;;;;;;;11.90;9.60;;;21.70;99.90;;;;;;4985787;28;20057;-60
2023/08/23 08:34:20;;;;;;;12.45;9.50;;;21.90;99.90;;;;;;4983724;28;20045;-58
2023/08/23 08:36:45;;;;;;;10.73;8.57;;;22.10;99.90;;;;;;4984549;28;20081;-55
2023/08/23 08:39:11;;;;;;;10.35;7.95;;;22.10;99.90;;;;;;4983245;28;20136;-58
2023/08/23 08:41:37;;;;;;;10.10;7.70;;;22.10;99.90;;;;;;4983810;28;20510;-58
2023/08/23 08:44:02;;;;;;;8.88;7.00;;;22.00;99.90;;;;;;4984523;28;20192;-55
2023/08/23 08:46:28;;;;;;;8.43;6.60;;;21.90;99.90;;;;;;4994284;28;20382;-58
2023/08/23 08:48:54;;;;;;;9.90;5.65;;;21.90;99.90;;;;;;5003584;28;20038;-56
2023/08/23 08:51:20;;;;;;;7.25;6.30;;;22.00;99.90;;;;;;5004226;28;20037;-56
2023/08/23 08:53:51;;;;;;;7.32;5.72;;;22.20;99.90;;;;;;5006646;28;20049;-59
2023/08/23 08:56:19;;;;;;;8.02;5.53;;;22.40;99.90;;;;;;4999902;28;20061;-61
2023/08/23 08:58:45;;;;;;;9.70;5.10;;;22.50;99.90;;;;;;4996627;28;20113;-62
2023/08/23 09:01:13;;;;;;;10.63;5.65;;;22.70;99.90;;;;;;5006570;28;20049;-68
2023/08/23 09:03:40;;;;;;;9.13;6.40;;;22.80;99.90;;;;;;5005665;28;20042;-68
2023/08/23 09:06:07;;;;;;;6.78;4.90;;;22.80;99.90;;;;;;5006325;28;20045;-66
2023/08/23 09:08:33;;;;;;;8.27;4.25;;;22.70;99.90;;;;;;5005766;28;20069;-65
2023/08/23 09:10:59;;;;;;;6.80;4.65;;;22.60;99.90;;;;;;5006905;28;20046;-65
2023/08/23 09:13:25;;;;;;;7.07;4.82;;;22.50;99.90;;;;;;5006837;28;20137;-65
2023/08/23 09:15:51;;;;;;;7.35;5.32;;;22.30;99.90;;;;;;5006889;28;20135;-62
2023/08/23 09:18:20;;;;;;;6.30;4.57;;;22.20;99.90;;;;;;5006986;28;20088;-61
2023/08/23 09:20:46;;;;;;;5.45;3.80;;;22.20;99.90;;;;;;5007113;28;20041;-60
2023/08/23 09:23:12;;;;;;;5.88;3.78;;;22.20;99.90;;;;;;5006283;28;20058;-60
2023/08/23 09:25:37;;;;;;;7.57;3.88;;;22.30;99.90;;;;;;5005448;28;20038;-61
2023/08/23 09:28:03;;;;;;;4.85;3.40;;;22.50;99.90;;;;;;5007397;28;20104;-60
2023/08/23 09:30:29;;;;;;;5.13;2.58;;;22.70;99.90;;;;;;5007431;28;20114;-60
2023/08/23 09:32:57;;;;;;;5.35;2.70;;;22.80;99.90;;;;;;5001289;28;20046;-63
2023/08/23 09:35:23;;;;;;;3.67;2.65;;;22.90;99.90;;;;;;4995740;28;20042;-66
2023/08/23 09:37:49;;;;;;;5.55;2.90;;;23.20;99.90;;;;;;5006672;28;20038;-57
2023/08/23 09:40:18;;;;;;;5.88;3.40;;;23.60;99.90;;;;;;5005125;28;20662;-65
2023/08/23 09:42:44;;;;;;;5.93;2.90;;;23.50;99.90;;;;;;5006994;28;20042;-59
2023/08/23 09:45:16;;;;;;;8.40;2.95;;;23.40;99.90;;;;;;4983969;28;20042;-68
2023/08/23 09:47:51;;;;;;;5.43;2.80;;;23.50;99.90;;;;;;5007171;28;20481;-65
2023/08/23 09:50:18;;;;;;;4.22;2.40;;;23.70;99.90;;;;;;5007558;28;20073;-67
2023/08/23 09:52:48;;;;;;;5.75;2.17;;;23.80;99.90;;;;;;5005000;28;20048;-62
2023/08/23 09:55:14;;;;;;;5.78;2.28;;;23.90;99.90;;;;;;4986521;28;20082;-64
2023/08/23 09:57:40;;;;;;;3.85;2.20;;;24.10;99.90;;;;;;4996075;28;20450;-63
2023/08/23 10:00:07;;;;;;;4.15;2.03;;;24.20;99.90;;;;;;4987705;28;20061;-60
2023/08/23 10:02:33;;;;;;;3.70;2.13;;;24.30;99.90;;;;;;4986367;28;20723;-64
2023/08/23 10:05:03;;;;;;;6.25;2.30;;;24.40;99.90;;;;;;4986336;28;20141;-60
2023/08/23 10:07:31;;;;;;;4.03;1.70;;;24.30;99.90;;;;;;4987694;28;20030;-61
2023/08/23 10:09:57;;;;;;;4.72;1.67;;;24.40;99.90;;;;;;4986122;28;20833;-59
2023/08/23 10:12:23;;;;;;;3.45;1.80;;;24.70;99.90;;;;;;4995775;28;20042;-65
2023/08/23 10:14:53;;;;;;;7.85;2.30;;;24.90;99.60;;;;;;5006352;28;20046;-65
2023/08/23 10:17:21;;;;;;;4.22;1.98;;;25.10;98.80;;;;;;4993410;28;20046;-67
2023/08/23 10:19:47;;;;;;;3.63;1.80;;;25.00;97.90;;;;;;4999403;28;20392;-60
2023/08/23 10:22:13;;;;;;;3.80;1.80;;;24.90;98.10;;;;;;5007359;28;20038;-63
2023/08/23 10:24:40;;;;;;;4.18;1.70;;;25.00;98.40;;;;;;5003167;28;20125;-61
2023/08/23 10:27:08;;;;;;;3.28;1.95;;;25.10;98.50;;;;;;4986546;28;20101;-59
2023/08/23 10:29:37;;;;;;;3.55;1.75;;;25.20;98.20;;;;;;4987082;28;20085;-60
2023/08/23 10:32:11;;;;;;;5.22;2.08;;;25.30;98.20;;;;;;4986156;28;20049;-59
2023/08/23 10:34:38;;;;;;;3.97;1.98;;;25.30;97.40;;;;;;4989284;28;20042;-61
2023/08/23 10:37:19;;;;;;;5.85;2.45;;;25.20;97.20;;;;;;4993587;28;20050;-61
2023/08/23 10:39:49;;;;;;;5.07;2.35;;;25.00;97.50;;;;;;5002953;28;20045;-55
2023/08/23 10:42:19;;;;;;;5.88;2.03;;;25.10;97.90;;;;;;5006652;28;20050;-61
2023/08/23 10:44:46;;;;;;;4.00;1.85;;;25.40;98.00;;;;;;5006909;28;20077;-55
2023/08/23 10:47:15;;;;;;;5.47;2.10;;;25.70;97.00;;;;;;5006484;28;20081;-61
2023/08/23 10:49:41;;;;;;;6.72;2.17;;;25.70;96.90;;;;;;5007066;28;20113;-55
2023/08/23 10:52:07;;;;;;;5.65;2.53;;;25.70;97.00;;;;;;5006860;28;20045;-57
2023/08/23 10:54:33;;;;;;;5.47;1.98;;;25.70;96.60;;;;;;5005123;28;20104;-57
2023/08/23 10:56:59;;;;;;;4.90;2.25;;;25.80;97.30;;;;;;5001014;28;20507;-55
2023/08/23 10:59:25;;;;;;;4.30;1.70;;;25.70;96.70;;;;;;4999953;28;20126;-57
2023/08/23 11:01:51;;;;;;;4.93;1.80;;;25.80;96.80;;;;;;5006415;28;20596;-57
2023/08/23 11:04:17;;;;;;;6.90;2.47;;;25.70;97.10;;;;;;5005789;28;20385;-57
2023/08/23 11:06:45;;;;;;;5.22;2.20;;;25.60;97.60;;;;;;4997878;28;20034;-54
2023/08/23 11:09:11;;;;;;;5.93;2.25;;;25.60;97.70;;;;;;5005684;28;20122;-59
2023/08/23 11:11:36;;;;;;;5.40;2.42;;;25.40;97.60;;;;;;4987813;28;20513;-57
2023/08/23 11:14:03;;;;;;;5.05;1.92;;;25.60;96.70;;;;;;4987833;28;20141;-57
2023/08/23 11:16:28;;;;;;;3.95;1.80;;;25.70;96.70;;;;;;4996563;28;20551;-55
2023/08/23 11:18:54;;;;;;;5.82;2.25;;;25.50;96.40;;;;;;4986581;28;20038;-58
2023/08/23 11:21:20;;;;;;;5.55;1.95;;;25.30;96.40;;;;;;4984939;28;20065;-56
2023/08/23 11:23:45;;;;;;;6.05;2.10;;;25.20;96.90;;;;;;4986503;28;20089;-54
2023/08/23 11:26:11;;;;;;;4.88;2.17;;;25.30;97.40;;;;;;4998915;28;20046;-56
2023/08/23 11:28:37;;;;;;;4.32;2.20;;;25.50;97.30;;;;;;5005860;28;20033;-55
2023/08/23 11:31:06;;;;;;;6.38;2.30;;;25.50;97.20;;;;;;4997276;28;20046;-58
2023/08/23 11:33:37;;;;;;;4.95;2.30;;;25.50;97.30;;;;;;4987196;28;20407;-61
2023/08/23 11:36:03;;;;;;;7.32;2.60;;;25.30;97.50;;;;;;4984448;28;20050;-60
2023/08/23 11:38:29;;;;;;;6.30;2.55;;;25.50;97.50;;;;;;4986060;28;20389;-56
2023/08/23 11:40:57;;;;;;;7.03;3.00;;;25.70;97.80;;;;;;4986345;28;20108;-61
2023/08/23 11:43:27;;;;;;;17.70;2.95;;;26.10;97.30;;;;;;4985956;28;20129;-57
2023/08/23 11:45:53;;;;;;;6.40;2.65;;;26.40;96.70;;;;;;4991541;28;20053;-58
2023/08/23 11:48:21;;;;;;;10.25;3.30;;;26.60;96.70;;;;;;5005871;28;20045;-58
2023/08/23 11:50:47;;;;;;;6.40;2.45;;;26.50;96.00;;;;;;5005451;28;20057;-61
2023/08/23 11:53:12;;;;;;;5.35;2.88;;;26.20;96.10;;;;;;5004123;28;20037;-52
2023/08/23 11:55:40;;;;;;;5.72;2.70;;;26.00;96.10;;;;;;5000398;28;20473;-59
2023/08/23 11:58:06;;;;;;;6.20;2.28;;;25.80;96.10;;;;;;4994521;28;20053;-61
2023/08/23 12:00:33;;;;;;;4.97;2.20;;;25.50;96.40;;;;;;4985292;28;20042;-54
2023/08/23 12:02:59;;;;;;;5.88;2.70;;;25.70;97.00;;;;;;5000921;28;20580;-63
2023/08/23 12:05:25;;;;;;;4.75;2.70;;;25.80;96.80;;;;;;4985537;28;20050;-61
2023/08/23 12:07:51;;;;;;;11.00;3.00;;;25.80;96.40;;;;;;4990931;28;20551;-60
2023/08/23 12:10:16;;;;;;;5.30;2.67;;;25.70;96.30;;;;;;5002676;28;20045;-63
2023/08/23 12:12:42;;;;;;;6.45;2.72;;;25.60;96.50;;;;;;5005241;28;20619;-58
2023/08/23 12:15:08;;;;;;;6.45;2.67;;;25.50;96.70;;;;;;5000518;28;20302;-63
2023/08/23 12:17:34;;;;;;;5.85;2.70;;;25.30;96.70;;;;;;4997695;28;20129;-63
2023/08/23 12:20:00;;;;;;;7.35;2.85;;;25.30;96.90;;;;;;4985691;28;20157;-61
2023/08/23 12:22:26;;;;;;;4.90;2.75;;;25.40;97.00;;;;;;4985484;28;20548;-59
2023/08/23 12:24:52;;;;;;;5.47;2.40;;;25.70;95.90;;;;;;4987863;28;20034;-62
2023/08/23 12:27:17;;;;;;;6.28;2.45;;;25.90;95.90;;;;;;4991702;28;20058;-64
2023/08/23 12:29:43;;;;;;;4.45;2.60;;;26.10;95.00;;;;;;5003022;28;20122;-55
2023/08/23 12:32:09;;;;;;;8.00;2.78;;;26.20;95.70;;;;;;5005995;28;20073;-64